This is the latest recevied weather packets stored in our database for station/object N6GPM. If no packets are shown the sender has not sent any weather packets the latest 1 day(s).
| Time | Temp. | Humidity | Pressure | Rain* | Wind** | Luminosity | Snow |
|---|---|---|---|---|---|---|---|
| 1778022223 | 18.33° C | 51% | 1016.9 hPa | 0 mm | 4.02 m/s, 246° | 244 W/m² | - |
| 1778021919 | 17.22° C | 55% | 1016.8 hPa | 0 mm | 4.02 m/s, 270° | 653 W/m² | - |
| 1778021616 | 17.22° C | 54% | 1016.9 hPa | 0 mm | 2.24 m/s, 257° | 498 W/m² | - |
| 1778021311 | 17.22° C | 55% | 1016.9 hPa | 0 mm | 2.68 m/s, 333° | 321 W/m² | - |
| 1778021010 | 17.22° C | 55% | 1017 hPa | 0 mm | 3.58 m/s, 287° | 293 W/m² | - |
| 1778020706 | 17.78° C | 52% | 1017 hPa | 0 mm | 3.13 m/s, 298° | 342 W/m² | - |
| 1778020403 | 17.78° C | 52% | 1016.9 hPa | 0 mm | 1.34 m/s, 290° | 791 W/m² | - |
| 1778020099 | 18.33° C | 53% | 1017 hPa | 0 mm | 3.13 m/s, 307° | 259 W/m² | - |
| 1778019795 | 17.78° C | 53% | 1017 hPa | 0 mm | 0 m/s | 824 W/m² | - |
| 1778019493 | 17.22° C | 54% | 1016.9 hPa | 0 mm | 1.34 m/s, 285° | 778 W/m² | - |
| 1778019189 | 17.78° C | 55% | 1017.4 hPa | 0 mm | 2.24 m/s, 285° | 319 W/m² | - |
| 1778018886 | 17.78° C | 53% | 1017.3 hPa | 0 mm | 0.89 m/s, 292° | 254 W/m² | - |
| 1778018583 | 17.78° C | 54% | 1016.9 hPa | 0 mm | 1.79 m/s, 260° | 430 W/m² | - |
| 1778018282 | 18.33° C | 53% | 1017.2 hPa | 0 mm | 1.34 m/s, 302° | 791 W/m² | - |
| 1778017979 | 18.89° C | 49% | 1017 hPa | 0 mm | 0 m/s | 770 W/m² | - |
| 1778017676 | 18.89° C | 47% | 1016.8 hPa | 0 mm | 0 m/s | 750 W/m² | - |
| 1778017374 | 18.33° C | 48% | 1017.5 hPa | 0 mm | 0 m/s | 793 W/m² | - |
| 1778017071 | 17.78° C | 49% | 1017.3 hPa | 0 mm | 0 m/s | 831 W/m² | - |
| 1778016768 | 17.78° C | 49% | 1017.5 hPa | 0 mm | 1.34 m/s, 235° | 483 W/m² | - |
| 1778016463 | 17.78° C | 51% | 1017.4 hPa | 0 mm | 0 m/s | 318 W/m² | - |
| 1778016162 | 17.22° C | 52% | 1017.8 hPa | 0 mm | 0 m/s | 332 W/m² | - |
| 1778015858 | 16.67° C | 52% | 1017.5 hPa | 0 mm | 0 m/s | 297 W/m² | - |
| 1778015556 | 16.67° C | 53% | 1017.7 hPa | 0 mm | 0 m/s | 402 W/m² | - |
| 1778015252 | 16.67° C | 54% | 1017.8 hPa | 0 mm | 0 m/s | 246 W/m² | - |
| 1778014949 | 16.67° C | 53% | 1017.7 hPa | 0 mm | 0 m/s | 238 W/m² | - |
* Rain latest hour (hover to see other rain measurements)
** Current wind speed in m/s (hover to see current wind gust speed)